Time;durP1;ratioP1;P1;durP2;ratioP2;P2;SDS_P1;SDS_P2;PMS_P1;PMS_P2;Temp;Humidity;BMP_temperature;BMP_pressure;BME280_temperature;BME280_humidity;BME280_pressure;Samples;Min_cycle;Max_cycle;Signal;HPM_P1;HPM_P2
2023/04/14 00:01:31;;;;;;;4.22;1.38;;;18.00;70.40;;;;;;10520241;28;20027;-27
2023/04/14 00:06:32;;;;;;;3.78;1.50;;;17.70;77.00;;;;;;10516052;28;20048;-28
2023/04/14 00:11:35;;;;;;;3.78;1.50;;;17.70;80.00;;;;;;10515538;28;20808;-29
2023/04/14 00:16:38;;;;;;;3.92;1.27;;;18.40;75.50;;;;;;10525495;28;20048;-28
2023/04/14 00:21:40;;;;;;;3.35;1.35;;;18.70;73.50;;;;;;10518163;28;20047;-29
2023/04/14 00:26:42;;;;;;;6.28;1.88;;;18.70;73.10;;;;;;10520427;28;20526;-30
2023/04/14 00:31:46;;;;;;;3.28;1.38;;;18.20;72.80;;;;;;10521240;28;20133;-30
2023/04/14 00:36:47;;;;;;;6.50;1.33;;;18.50;72.10;;;;;;10513273;28;20094;-29
2023/04/14 00:41:49;;;;;;;5.55;2.05;;;17.30;67.30;;;;;;10522727;28;20052;-34
2023/04/14 00:46:53;;;;;;;5.07;1.30;;;16.60;83.50;;;;;;10532003;28;20083;-28
2023/04/14 00:51:56;;;;;;;3.35;1.45;;;16.60;84.60;;;;;;10527558;28;20067;-29
2023/04/14 00:56:58;;;;;;;5.93;1.35;;;16.90;81.20;;;;;;10526405;28;20052;-28
2023/04/14 01:02:02;;;;;;;7.88;1.13;;;16.50;87.40;;;;;;10537323;28;20079;-27
2023/04/14 01:07:04;;;;;;;9.23;1.73;;;17.10;81.50;;;;;;10515322;28;20134;-30
2023/04/14 01:12:15;;;;;;;7.35;1.23;;;16.60;77.90;;;;;;10523418;28;20051;-29
2023/04/14 01:17:27;;;;;;;6.97;1.15;;;16.40;80.00;;;;;;10526475;28;20048;-32
2023/04/14 01:22:32;;;;;;;4.28;1.27;;;16.60;80.20;;;;;;10534913;28;20530;-31
2023/04/14 01:27:43;;;;;;;3.20;1.27;;;16.50;89.50;;;;;;10527199;28;20450;-29
2023/04/14 01:32:49;;;;;;;5.63;1.23;;;16.30;89.50;;;;;;10529503;28;20404;-27
2023/04/14 01:37:55;;;;;;;4.38;1.25;;;15.60;90.10;;;;;;10530180;28;20048;-29
2023/04/14 01:43:03;;;;;;;2.05;0.85;;;17.50;80.10;;;;;;10524732;28;20075;-29
2023/04/14 01:48:08;;;;;;;3.83;1.00;;;17.40;80.10;;;;;;10523898;28;20117;-30
2023/04/14 01:53:13;;;;;;;1.88;1.00;;;17.40;78.70;;;;;;10513203;28;20123;-27
2023/04/14 01:58:17;;;;;;;1.52;0.70;;;17.50;78.20;;;;;;10525671;28;20508;-29
2023/04/14 02:03:21;;;;;;;5.50;1.08;;;17.50;76.00;;;;;;10527401;28;20472;-27
2023/04/14 02:08:24;;;;;;;3.33;1.50;;;16.70;76.40;;;;;;10523570;28;20049;-30
2023/04/14 02:13:28;;;;;;;2.78;1.05;;;17.40;79.20;;;;;;10533670;28;20044;-30
2023/04/14 02:18:32;;;;;;;4.32;0.80;;;18.00;74.70;;;;;;10525825;28;20517;-31
2023/04/14 02:23:34;;;;;;;1.73;0.70;;;18.10;73.30;;;;;;10523612;28;20556;-30
2023/04/14 02:28:43;;;;;;;1.67;0.80;;;18.20;72.40;;;;;;10526250;28;20044;-31
2023/04/14 02:33:52;;;;;;;2.55;1.00;;;18.20;72.00;;;;;;10525654;28;20070;-27
2023/04/14 02:38:58;;;;;;;2.78;0.80;;;18.10;72.50;;;;;;10525747;28;20040;-29
2023/04/14 02:44:05;;;;;;;4.25;1.08;;;18.00;73.00;;;;;;10521768;28;20437;-27
2023/04/14 02:49:13;;;;;;;1.70;0.80;;;18.00;72.80;;;;;;10516700;28;20064;-27
2023/04/14 02:54:18;;;;;;;1.75;0.80;;;17.90;73.50;;;;;;10523957;28;20040;-27
2023/04/14 02:59:21;;;;;;;1.42;0.80;;;18.10;71.90;;;;;;10524259;28;20079;-28
2023/04/14 03:04:25;;;;;;;2.00;0.90;;;18.20;71.00;;;;;;10527440;28;20141;-30
2023/04/14 03:09:29;;;;;;;2.38;0.90;;;18.20;70.90;;;;;;10509861;28;20101;-28
2023/04/14 03:14:31;;;;;;;1.38;0.60;;;18.20;71.00;;;;;;10507960;28;20135;-28
2023/04/14 03:19:36;;;;;;;1.20;0.70;;;18.20;70.80;;;;;;10530842;28;20079;-28
2023/04/14 03:24:40;;;;;;;1.20;0.60;;;18.20;70.80;;;;;;10527905;28;20052;-29
2023/04/14 03:29:45;;;;;;;2.13;0.70;;;18.20;71.10;;;;;;10528544;28;20051;-29
2023/04/14 03:34:52;;;;;;;2.58;0.73;;;18.10;70.60;;;;;;10519521;28;20137;-31
2023/04/14 03:39:59;;;;;;;0.80;0.43;;;18.10;70.70;;;;;;10525791;28;20052;-29
2023/04/14 03:45:02;;;;;;;1.85;0.73;;;18.10;70.50;;;;;;10523698;28;20495;-28
2023/04/14 03:50:08;;;;;;;0.90;0.60;;;18.10;70.50;;;;;;10516205;28;20544;-29
2023/04/14 03:55:11;;;;;;;1.23;0.70;;;18.10;70.70;;;;;;10522846;28;20055;-29
2023/04/14 04:00:14;;;;;;;2.30;0.65;;;18.10;70.40;;;;;;10515078;28;20143;-30
2023/04/14 04:05:18;;;;;;;3.60;0.90;;;18.10;70.60;;;;;;10528560;28;20109;-30
2023/04/14 04:10:22;;;;;;;1.52;0.70;;;18.00;70.80;;;;;;10518094;28;20147;-28
2023/04/14 04:15:24;;;;;;;3.50;0.90;;;18.00;70.90;;;;;;10516423;28;20056;-30
2023/04/14 04:20:29;;;;;;;1.20;0.45;;;17.90;71.00;;;;;;10512406;28;20053;-28
2023/04/14 04:25:32;;;;;;;2.13;0.70;;;17.60;73.30;;;;;;10497010;28;20413;-28
2023/04/14 04:30:38;;;;;;;2.22;0.98;;;17.80;71.60;;;;;;10505789;28;20045;-28
2023/04/14 04:35:42;;;;;;;1.20;0.70;;;18.00;70.70;;;;;;10518708;28;20048;-28
2023/04/14 04:40:44;;;;;;;1.38;0.60;;;18.00;70.40;;;;;;10517222;28;20467;-28
2023/04/14 04:46:01;;;;;;;0.52;0.40;;;18.00;70.30;;;;;;10511408;28;20056;-29
2023/04/14 04:51:31;;;;;;;1.00;0.60;;;18.00;70.50;;;;;;10517631;28;20447;-31
2023/04/14 04:56:34;;;;;;;0.98;0.60;;;18.00;70.50;;;;;;10508852;28;20076;-34
2023/04/14 05:01:36;;;;;;;0.85;0.60;;;18.00;70.80;;;;;;10516142;28;20058;-34
2023/04/14 05:06:39;;;;;;;1.17;0.63;;;18.00;70.80;;;;;;10519892;28;20040;-31
2023/04/14 05:11:41;;;;;;;0.70;0.43;;;18.00;71.00;;;;;;10514406;28;20109;-32
2023/04/14 05:16:43;;;;;;;0.90;0.50;;;18.00;71.00;;;;;;10511117;28;20134;-29
2023/04/14 05:21:46;;;;;;;1.33;0.60;;;18.00;71.10;;;;;;10515206;28;20131;-32
2023/04/14 05:26:48;;;;;;;0.90;0.70;;;18.00;71.20;;;;;;10523568;28;20071;-34
2023/04/14 05:31:50;;;;;;;1.00;0.52;;;18.00;71.20;;;;;;10523135;28;20053;-33
2023/04/14 05:36:53;;;;;;;1.00;0.70;;;18.00;71.50;;;;;;10526507;28;20077;-32
2023/04/14 05:41:55;;;;;;;1.85;1.08;;;18.00;71.60;;;;;;10519016;28;20106;-31
2023/04/14 05:46:57;;;;;;;2.05;1.38;;;18.00;71.40;;;;;;10526363;28;20048;-33
2023/04/14 05:52:00;;;;;;;1.43;1.07;;;18.00;71.50;;;;;;10522687;28;20399;-35
2023/04/14 05:57:03;;;;;;;3.63;1.50;;;18.00;71.30;;;;;;10523276;28;20911;-31
2023/04/14 06:02:06;;;;;;;4.03;1.55;;;18.10;71.30;;;;;;10515943;28;20040;-32
2023/04/14 06:07:09;;;;;;;4.63;1.60;;;18.10;71.10;;;;;;10512795;28;20052;-28
2023/04/14 06:12:11;;;;;;;3.17;1.38;;;18.10;71.30;;;;;;10521227;28;20682;-28
2023/04/14 06:17:13;;;;;;;;;;;18.10;71.20;;;;;;10526107;28;20044;-28
2023/04/14 06:22:18;;;;;;;5.72;2.78;;;18.10;71.60;;;;;;10517917;28;20304;-31
2023/04/14 06:27:20;;;;;;;6.32;2.83;;;18.00;71.40;;;;;;10528156;28;20055;-28
2023/04/14 06:32:22;;;;;;;6.07;2.87;;;18.00;71.60;;;;;;10525119;28;20056;-33
2023/04/14 06:37:25;;;;;;;5.93;2.45;;;18.00;71.00;;;;;;10520502;28;20075;-30
2023/04/14 06:42:27;;;;;;;6.45;1.70;;;18.20;70.30;;;;;;10517258;28;20626;-35
2023/04/14 06:47:29;;;;;;;4.68;1.55;;;18.30;70.20;;;;;;10525148;28;20071;-28
2023/04/14 06:52:32;;;;;;;6.70;1.45;;;18.20;69.90;;;;;;10522651;28;20056;-31
2023/04/14 06:57:34;;;;;;;4.65;1.77;;;18.30;69.20;;;;;;10520073;28;20102;-30
2023/04/14 07:02:36;;;;;;;4.68;1.90;;;18.30;69.00;;;;;;10522458;28;20044;-28
2023/04/14 07:07:40;;;;;;;8.23;1.92;;;18.30;68.60;;;;;;10528514;28;20160;-28
2023/04/14 07:12:41;;;;;;;6.97;2.00;;;18.30;68.30;;;;;;10527569;28;20385;-29
2023/04/14 07:17:43;;;;;;;8.07;3.53;;;18.30;68.50;;;;;;10515499;28;20373;-31
2023/04/14 07:22:47;;;;;;;8.50;3.83;;;18.30;68.20;;;;;;10528003;28;20044;-29
2023/04/14 07:27:49;;;;;;;12.05;5.13;;;18.30;68.40;;;;;;10532663;28;20078;-30
2023/04/14 07:32:51;;;;;;;14.68;4.78;;;18.20;68.60;;;;;;10529338;28;20055;-29
2023/04/14 07:37:54;;;;;;;8.95;5.00;;;18.20;68.60;;;;;;10518973;28;20050;-29
2023/04/14 07:42:57;;;;;;;11.68;5.03;;;18.20;67.90;;;;;;10523103;28;20075;-27
2023/04/14 07:47:59;;;;;;;9.30;4.63;;;18.20;68.30;;;;;;10521631;28;20055;-29
2023/04/14 07:53:02;;;;;;;13.57;6.05;;;18.20;68.40;;;;;;10531055;28;20074;-28
2023/04/14 07:58:04;;;;;;;13.27;6.55;;;18.20;68.00;;;;;;10509875;28;20139;-35
2023/04/14 08:03:06;;;;;;;12.60;4.47;;;18.30;67.60;;;;;;10513427;28;20068;-33
2023/04/14 08:08:09;;;;;;;9.95;3.40;;;18.40;67.10;;;;;;10503411;28;20079;-30
2023/04/14 08:13:11;;;;;;;4.65;2.58;;;18.50;67.00;;;;;;10493660;28;20051;-29
2023/04/14 08:18:13;;;;;;;5.07;2.72;;;18.50;66.90;;;;;;10525474;28;20075;-31
2023/04/14 08:23:16;;;;;;;4.93;2.72;;;18.50;66.90;;;;;;10516131;28;20090;-29
2023/04/14 08:28:18;;;;;;;7.20;2.95;;;18.50;66.60;;;;;;10522151;28;20068;-30
2023/04/14 08:33:20;;;;;;;5.80;2.33;;;18.50;66.80;;;;;;10514335;28;20077;-30
2023/04/14 08:38:23;;;;;;;4.55;2.03;;;18.60;66.30;;;;;;10516782;28;20059;-30
2023/04/14 08:43:25;;;;;;;3.92;1.88;;;18.50;66.60;;;;;;10516121;28;20098;-29
2023/04/14 08:48:30;;;;;;;2.22;1.38;;;18.70;65.80;;;;;;10525898;28;20197;-30
2023/04/14 08:53:41;;;;;;;6.28;1.98;;;18.70;65.90;;;;;;10522976;28;20058;-33
2023/04/14 08:58:43;;;;;;;8.90;2.42;;;18.70;65.10;;;;;;10515965;28;20047;-29
2023/04/14 09:03:46;;;;;;;4.32;1.73;;;18.80;64.40;;;;;;10532236;28;20127;-30
2023/04/14 09:08:49;;;;;;;5.40;1.73;;;18.70;63.70;;;;;;10524153;28;20108;-29
2023/04/14 09:13:53;;;;;;;4.10;1.63;;;18.40;64.70;;;;;;10525358;28;20579;-28
2023/04/14 09:18:56;;;;;;;3.88;1.35;;;18.60;63.90;;;;;;10519843;28;20131;-31
2023/04/14 09:24:00;;;;;;;3.60;1.52;;;18.70;64.00;;;;;;10516703;28;20139;-31
2023/04/14 09:29:02;;;;;;;2.88;1.50;;;18.80;63.70;;;;;;10524711;28;20040;-28
2023/04/14 09:34:04;;;;;;;3.97;1.45;;;18.90;63.40;;;;;;10526307;28;20060;-31
2023/04/14 09:39:16;;;;;;;1.50;0.80;;;18.70;63.30;;;;;;10532214;28;20044;-28
2023/04/14 09:44:18;;;;;;;5.38;1.33;;;18.70;63.40;;;;;;10525691;28;20075;-30
2023/04/14 09:49:20;;;;;;;3.17;1.05;;;19.00;61.30;;;;;;10526394;28;20109;-30
2023/04/14 09:54:25;;;;;;;;;;;18.90;60.20;;;;;;10530911;28;20047;-36
2023/04/14 09:59:32;;;;;;;1.75;0.95;;;18.80;60.70;;;;;;10527790;28;19928;-35
2023/04/14 10:04:35;;;;;;;3.55;0.68;;;19.00;60.00;;;;;;10535022;28;20095;-30
2023/04/14 10:09:39;;;;;;;2.22;1.15;;;19.10;59.80;;;;;;10531193;28;20048;-32
2023/04/14 10:14:42;;;;;;;2.60;0.82;;;19.10;59.70;;;;;;10526090;28;20127;-33
2023/04/14 10:19:44;;;;;;;3.00;0.90;;;19.00;59.20;;;;;;10515159;28;20053;-28
2023/04/14 10:24:48;;;;;;;2.17;0.77;;;19.20;58.70;;;;;;10505495;28;20127;-29
2023/04/14 10:29:50;;;;;;;2.78;1.23;;;19.10;58.30;;;;;;10512606;28;20519;-32
2023/04/14 10:35:00;;;;;;;4.18;1.25;;;19.20;57.80;;;;;;10530725;28;20136;-36
2023/04/14 10:40:05;;;;;;;2.70;0.90;;;19.60;56.80;;;;;;10525716;28;20067;-36
2023/04/14 10:45:11;;;;;;;7.03;1.50;;;19.40;57.90;;;;;;10527567;28;20060;-33
2023/04/14 10:50:16;;;;;;;3.17;1.17;;;19.10;57.60;;;;;;10519653;28;20052;-30
2023/04/14 10:55:22;;;;;;;6.10;1.30;;;19.10;57.90;;;;;;10524244;28;20106;-35
2023/04/14 11:00:26;;;;;;;6.47;1.17;;;19.20;57.70;;;;;;10520645;28;20312;-33
2023/04/14 11:05:28;;;;;;;2.25;0.93;;;19.30;57.70;;;;;;10520194;28;20044;-30
2023/04/14 11:10:34;;;;;;;2.10;0.98;;;19.70;56.70;;;;;;10523239;28;20380;-28
2023/04/14 11:15:50;;;;;;;3.03;0.90;;;19.50;57.40;;;;;;10519195;28;20083;-29
2023/04/14 11:20:52;;;;;;;1.08;0.60;;;19.30;58.50;;;;;;10527763;28;20040;-28
2023/04/14 11:25:56;;;;;;;5.32;0.95;;;19.30;58.50;;;;;;10520116;28;20466;-29
2023/04/14 11:30:59;;;;;;;1.58;0.77;;;19.40;57.70;;;;;;10514652;28;20048;-28
2023/04/14 11:36:02;;;;;;;2.80;0.77;;;19.50;57.40;;;;;;10518443;28;20557;-29
2023/04/14 11:41:06;;;;;;;4.35;0.80;;;19.40;57.10;;;;;;10523578;28;20450;-28
2023/04/14 11:46:08;;;;;;;1.30;0.68;;;19.50;57.00;;;;;;10512881;28;20043;-29
2023/04/14 11:51:10;;;;;;;2.53;0.77;;;19.60;56.20;;;;;;10524625;28;22191;-28
2023/04/14 11:56:14;;;;;;;4.32;1.00;;;19.70;57.00;;;;;;10500602;28;20536;-28
2023/04/14 12:01:22;;;;;;;4.35;0.82;;;19.70;57.50;;;;;;10520243;28;20048;-28
2023/04/14 12:06:25;;;;;;;3.20;1.48;;;19.70;57.90;;;;;;10515263;28;20507;-28
2023/04/14 12:11:29;;;;;;;3.80;1.90;;;20.60;54.50;;;;;;10507250;28;20450;-28
2023/04/14 12:16:32;;;;;;;3.97;1.67;;;20.50;53.90;;;;;;10494756;28;20538;-33
2023/04/14 12:21:34;;;;;;;3.60;1.95;;;20.20;56.50;;;;;;10516380;28;20063;-32
2023/04/14 12:26:38;;;;;;;3.50;1.70;;;20.70;54.10;;;;;;10526487;28;20127;-29
2023/04/14 12:31:43;;;;;;;4.50;2.55;;;20.60;55.60;;;;;;10519087;28;20052;-30
2023/04/14 12:36:51;;;;;;;6.47;4.00;;;20.10;57.20;;;;;;10523380;28;20048;-33
2023/04/14 12:41:57;;;;;;;3.42;2.17;;;20.20;57.10;;;;;;10514056;28;20058;-30
2023/04/14 12:46:59;;;;;;;3.08;1.95;;;20.60;55.60;;;;;;10518268;28;20079;-28
2023/04/14 12:52:02;;;;;;;;;;;20.40;56.10;;;;;;10527307;28;20048;-30
2023/04/14 12:57:05;;;;;;;5.13;2.00;;;20.60;55.70;;;;;;10522206;28;19920;-28
2023/04/14 13:02:07;;;;;;;4.25;2.20;;;20.50;55.60;;;;;;10532389;28;20168;-30
2023/04/14 13:07:09;;;;;;;;;;;20.50;55.70;;;;;;10527491;28;20044;-30
2023/04/14 13:12:12;;;;;;;5.50;3.33;;;20.40;56.70;;;;;;10520340;28;19956;-29
2023/04/14 13:17:15;;;;;;;5.78;3.30;;;20.90;56.10;;;;;;10516792;28;20131;-28
2023/04/14 13:22:16;;;;;;;5.82;2.50;;;21.00;57.90;;;;;;10519669;28;20055;-30
2023/04/14 13:27:20;;;;;;;8.25;4.57;;;21.20;56.30;;;;;;10521541;28;20054;-32
2023/04/14 13:32:22;;;;;;;11.35;6.15;;;21.30;56.10;;;;;;10523831;28;20052;-35
2023/04/14 13:37:24;;;;;;;11.98;6.10;;;21.50;60.00;;;;;;10516995;28;20040;-31
2023/04/14 13:42:27;;;;;;;;;;;21.50;61.50;;;;;;10521410;28;20059;-29
2023/04/14 13:47:29;;;;;;;11.18;5.63;;;21.50;58.10;;;;;;10519169;28;19971;-29
2023/04/14 13:52:31;;;;;;;10.80;5.30;;;21.50;57.80;;;;;;10516798;28;20051;-32
2023/04/14 13:57:34;;;;;;;8.52;4.97;;;21.50;57.60;;;;;;10505113;28;20072;-32
2023/04/14 14:02:38;;;;;;;6.57;3.72;;;21.40;56.10;;;;;;10522225;28;20063;-30
2023/04/14 14:07:40;;;;;;;5.93;2.85;;;21.40;57.90;;;;;;10500284;28;20066;-30
2023/04/14 14:12:43;;;;;;;3.92;2.33;;;21.50;60.60;;;;;;10514212;28;20145;-29
2023/04/14 14:17:45;;;;;;;8.25;4.38;;;21.80;58.90;;;;;;10513922;28;20119;-30
2023/04/14 14:22:47;;;;;;;6.45;3.47;;;21.90;63.40;;;;;;10516928;28;20434;-30
2023/04/14 14:27:51;;;;;;;;;;;21.90;58.00;;;;;;10519863;28;20389;-30
2023/04/14 14:32:52;;;;;;;4.68;2.30;;;21.90;57.30;;;;;;10518785;28;19927;-29
2023/04/14 14:37:54;;;;;;;6.13;2.58;;;22.10;55.70;;;;;;10527206;28;20488;-31
2023/04/14 14:42:58;;;;;;;3.05;1.52;;;22.10;57.30;;;;;;10511973;28;20509;-30
2023/04/14 14:48:00;;;;;;;2.22;1.58;;;22.20;56.40;;;;;;10516129;28;20084;-29
2023/04/14 14:53:02;;;;;;;2.40;1.17;;;22.30;57.80;;;;;;10530594;28;20075;-27
2023/04/14 14:58:07;;;;;;;3.30;1.20;;;22.40;57.30;;;;;;10503931;28;20499;-29
2023/04/14 15:03:09;;;;;;;3.67;1.25;;;22.40;58.00;;;;;;10521637;28;20048;-30
2023/04/14 15:08:10;;;;;;;;;;;22.60;54.80;;;;;;10524306;28;20080;-30
2023/04/14 15:13:14;;;;;;;6.20;1.23;;;22.90;53.00;;;;;;10515086;28;20459;-31
2023/04/14 15:18:15;;;;;;;4.53;1.42;;;22.80;57.90;;;;;;10514898;28;20667;-32
2023/04/14 15:23:17;;;;;;;4.43;2.20;;;22.70;60.30;;;;;;10522859;28;20078;-30
2023/04/14 15:28:22;;;;;;;5.18;2.05;;;22.60;59.30;;;;;;10514408;28;20590;-30
2023/04/14 15:33:24;;;;;;;2.20;1.50;;;22.50;58.60;;;;;;10514604;28;20241;-32
2023/04/14 15:38:26;;;;;;;3.03;1.40;;;22.50;58.40;;;;;;10501518;28;20114;-33
2023/04/14 15:43:30;;;;;;;6.65;1.70;;;22.60;59.20;;;;;;10500147;28;20106;-32
2023/04/14 15:48:31;;;;;;;2.55;1.70;;;22.60;59.00;;;;;;10510783;28;20530;-34
2023/04/14 15:53:33;;;;;;;3.13;1.30;;;22.60;58.80;;;;;;10515944;28;20056;-30
2023/04/14 15:58:36;;;;;;;2.88;1.52;;;22.60;58.50;;;;;;10512398;28;20064;-34
2023/04/14 16:03:38;;;;;;;2.97;1.58;;;22.60;60.70;;;;;;10518541;28;20048;-34
2023/04/14 16:08:40;;;;;;;2.25;1.55;;;22.50;59.10;;;;;;10513408;28;20472;-32
2023/04/14 16:13:44;;;;;;;;;;;22.50;59.80;;;;;;10520662;28;20130;-33
2023/04/14 16:18:46;;;;;;;4.10;1.73;;;22.50;58.70;;;;;;10518359;28;19985;-30
2023/04/14 16:23:48;;;;;;;3.53;2.05;;;22.50;61.70;;;;;;10494613;28;20067;-32
2023/04/14 16:28:51;;;;;;;5.00;1.58;;;22.40;61.60;;;;;;10512153;28;20102;-30
2023/04/14 16:33:53;;;;;;;4.78;1.40;;;22.20;60.90;;;;;;10512126;28;20052;-30
2023/04/14 16:38:55;;;;;;;1.42;0.63;;;22.30;59.80;;;;;;10506832;28;20082;-31
2023/04/14 16:43:59;;;;;;;2.13;0.90;;;22.20;59.60;;;;;;10511048;28;21572;-34
2023/04/14 16:49:01;;;;;;;3.83;1.27;;;21.40;63.20;;;;;;10510691;28;20753;-31
2023/04/14 16:54:02;;;;;;;2.78;1.35;;;21.20;62.00;;;;;;10503899;28;20127;-32
2023/04/14 16:59:07;;;;;;;2.55;0.80;;;21.90;58.90;;;;;;10512587;28;20448;-31
2023/04/14 17:04:09;;;;;;;0.95;0.70;;;22.00;58.00;;;;;;10519856;28;20064;-34
2023/04/14 17:09:11;;;;;;;1.08;0.80;;;22.00;57.70;;;;;;10514776;28;20467;-33
2023/04/14 17:14:15;;;;;;;1.17;0.60;;;22.00;57.70;;;;;;10517887;28;20575;-31
2023/04/14 17:19:17;;;;;;;1.45;0.68;;;22.00;57.30;;;;;;10524690;28;20076;-31
2023/04/14 17:24:19;;;;;;;2.22;0.70;;;22.00;57.30;;;;;;10523134;28;20056;-29
2023/04/14 17:29:23;;;;;;;3.25;0.70;;;22.00;57.30;;;;;;10514009;28;20054;-30
2023/04/14 17:34:25;;;;;;;4.07;0.60;;;21.90;57.60;;;;;;10502711;28;20061;-32
2023/04/14 17:39:27;;;;;;;2.53;1.10;;;21.50;59.90;;;;;;10519786;28;20382;-32
2023/04/14 17:44:32;;;;;;;;;;;21.40;58.80;;;;;;10525071;28;20130;-30
2023/04/14 17:49:34;;;;;;;3.47;0.60;;;20.50;56.80;;;;;;10515251;28;19950;-29
2023/04/14 17:54:36;;;;;;;1.77;0.47;;;21.30;62.50;;;;;;10525644;28;20530;-29
2023/04/14 17:59:40;;;;;;;2.20;0.68;;;21.70;61.60;;;;;;10514538;28;20083;-29
2023/04/14 18:04:42;;;;;;;1.63;0.80;;;21.80;61.60;;;;;;10516881;28;20102;-28
2023/04/14 18:09:44;;;;;;;3.10;1.05;;;21.80;61.70;;;;;;10521910;28;20043;-34
2023/04/14 18:14:48;;;;;;;3.10;1.98;;;21.80;64.20;;;;;;10527668;28;20051;-29
2023/04/14 18:19:51;;;;;;;3.55;2.22;;;21.80;64.50;;;;;;10517657;28;20055;-28
2023/04/14 18:24:53;;;;;;;3.90;2.63;;;21.70;63.70;;;;;;10520536;28;20048;-30
2023/04/14 18:29:57;;;;;;;7.85;3.55;;;21.80;63.60;;;;;;10508429;28;20051;-33
2023/04/14 18:34:59;;;;;;;5.05;3.60;;;21.70;63.20;;;;;;10520129;28;20151;-29
2023/04/14 18:40:01;;;;;;;;;;;21.70;63.50;;;;;;10525265;28;20044;-31
2023/04/14 18:45:05;;;;;;;4.10;2.50;;;21.70;61.80;;;;;;10521322;28;19924;-31
2023/04/14 18:50:08;;;;;;;2.42;1.63;;;21.60;61.50;;;;;;10511563;28;20530;-31
2023/04/14 18:55:10;;;;;;;1.65;1.15;;;21.60;61.30;;;;;;10515550;28;20543;-30
2023/04/14 19:00:13;;;;;;;1.70;1.20;;;21.60;61.40;;;;;;10521163;28;20067;-32
2023/04/14 19:05:15;;;;;;;6.05;2.17;;;21.50;61.20;;;;;;10522580;28;20134;-26
2023/04/14 19:10:18;;;;;;;9.25;2.72;;;21.50;61.30;;;;;;10525930;28;20117;-28
2023/04/14 19:15:21;;;;;;;6.28;2.45;;;21.50;61.40;;;;;;10521880;28;20413;-28
2023/04/14 19:20:24;;;;;;;3.42;2.63;;;21.50;61.30;;;;;;10524612;28;20134;-33
2023/04/14 19:25:26;;;;;;;9.88;2.40;;;21.40;61.30;;;;;;10521142;28;20081;-30
2023/04/14 19:30:29;;;;;;;12.10;3.45;;;21.40;61.30;;;;;;10518217;28;20480;-33
2023/04/14 19:35:31;;;;;;;9.63;3.42;;;21.30;61.30;;;;;;10524527;28;20129;-27
2023/04/14 19:40:33;;;;;;;8.93;4.50;;;21.30;61.50;;;;;;10524347;28;20126;-34
2023/04/14 19:45:36;;;;;;;7.13;3.38;;;21.30;61.50;;;;;;10509817;28;20401;-30
2023/04/14 19:50:38;;;;;;;7.88;3.50;;;21.30;61.60;;;;;;10514917;28;20076;-30
2023/04/14 19:55:40;;;;;;;7.55;3.97;;;21.20;61.60;;;;;;10514693;28;20048;-30
2023/04/14 20:00:44;;;;;;;14.15;5.20;;;21.20;61.70;;;;;;10520505;28;20671;-27
2023/04/14 20:05:50;;;;;;;13.13;4.03;;;21.20;61.70;;;;;;10498798;28;20044;-29
2023/04/14 20:10:53;;;;;;;17.73;4.43;;;21.20;61.80;;;;;;10517246;28;20063;-33
2023/04/14 20:15:56;;;;;;;12.10;3.22;;;21.10;61.70;;;;;;10511375;28;20102;-32
2023/04/14 20:20:59;;;;;;;8.60;3.33;;;21.10;61.90;;;;;;10515567;28;20052;-29
2023/04/14 20:26:02;;;;;;;8.40;3.13;;;21.10;61.90;;;;;;10515854;28;20046;-29
2023/04/14 20:31:05;;;;;;;9.32;3.42;;;21.10;62.00;;;;;;10520318;28;20140;-33
2023/04/14 20:36:07;;;;;;;10.13;3.60;;;21.10;62.00;;;;;;10518915;28;20451;-33
2023/04/14 20:41:09;;;;;;;6.93;3.17;;;21.00;62.00;;;;;;10511740;28;20084;-30
2023/04/14 20:46:12;;;;;;;8.27;3.20;;;21.00;62.10;;;;;;10512814;28;20068;-31
2023/04/14 20:51:14;;;;;;;7.15;3.38;;;21.00;62.80;;;;;;10521305;28;20450;-29
2023/04/14 20:56:16;;;;;;;12.48;4.47;;;20.90;62.40;;;;;;10508381;28;20141;-35
2023/04/14 21:01:20;;;;;;;11.35;4.47;;;20.90;62.40;;;;;;10522083;28;20048;-34
2023/04/14 21:06:22;;;;;;;8.98;4.68;;;20.90;62.50;;;;;;10535252;28;20048;-33
2023/04/14 21:11:24;;;;;;;12.27;3.95;;;20.80;62.50;;;;;;10521995;28;20086;-29
2023/04/14 21:16:27;;;;;;;16.35;4.05;;;20.80;62.50;;;;;;10533206;28;20162;-30
2023/04/14 21:21:30;;;;;;;7.95;3.10;;;20.80;62.70;;;;;;10531571;28;20055;-30
2023/04/14 21:26:32;;;;;;;14.30;3.55;;;20.70;62.70;;;;;;10525504;28;20048;-30
2023/04/14 21:31:35;;;;;;;9.30;3.45;;;20.80;62.70;;;;;;10527693;28;20055;-30
2023/04/14 21:36:38;;;;;;;9.27;3.67;;;20.70;62.80;;;;;;10532605;28;20079;-31
2023/04/14 21:41:40;;;;;;;4.25;2.50;;;20.70;62.70;;;;;;10519642;28;20492;-29
2023/04/14 21:46:43;;;;;;;;;;;20.70;62.60;;;;;;10505476;28;20050;-29
2023/04/14 21:51:45;;;;;;;6.72;3.63;;;20.70;62.70;;;;;;10532967;28;19959;-29
2023/04/14 21:56:48;;;;;;;6.57;3.50;;;20.60;62.80;;;;;;10530231;28;20056;-29
2023/04/14 22:01:52;;;;;;;5.45;3.30;;;20.60;62.80;;;;;;10525831;28;20062;-27
2023/04/14 22:06:54;;;;;;;8.55;3.13;;;20.50;62.90;;;;;;10515314;28;20048;-30
2023/04/14 22:11:56;;;;;;;4.50;2.47;;;20.60;62.90;;;;;;10517116;28;20056;-29
2023/04/14 22:16:59;;;;;;;5.18;3.00;;;20.50;63.00;;;;;;10510876;28;20048;-29
2023/04/14 22:22:01;;;;;;;5.38;2.90;;;20.50;62.90;;;;;;10510645;28;20042;-30
2023/04/14 22:27:03;;;;;;;8.55;3.85;;;20.50;63.00;;;;;;10519855;28;20573;-30
2023/04/14 22:32:07;;;;;;;4.93;2.97;;;20.40;63.00;;;;;;10524504;28;20048;-31
2023/04/14 22:37:09;;;;;;;5.90;3.05;;;20.50;63.10;;;;;;10526206;28;20055;-29
2023/04/14 22:42:11;;;;;;;7.55;3.72;;;20.40;63.00;;;;;;10528801;28;20040;-31
2023/04/14 22:47:14;;;;;;;12.43;4.68;;;20.40;63.20;;;;;;10511541;28;20867;-30
2023/04/14 22:52:16;;;;;;;13.82;5.25;;;20.30;63.40;;;;;;10519112;28;20060;-31
2023/04/14 22:57:18;;;;;;;8.02;4.20;;;20.30;63.60;;;;;;10517414;28;20378;-29
2023/04/14 23:02:21;;;;;;;;;;;20.20;63.70;;;;;;10510582;28;20131;-30
2023/04/14 23:07:23;;;;;;;10.90;5.53;;;20.20;63.60;;;;;;10526878;28;20283;-29
2023/04/14 23:12:25;;;;;;;9.27;5.30;;;20.20;63.80;;;;;;10531259;28;20052;-38
2023/04/14 23:17:28;;;;;;;9.98;5.63;;;20.20;63.80;;;;;;10520147;28;20473;-32
2023/04/14 23:22:30;;;;;;;8.88;4.55;;;20.10;63.80;;;;;;10526088;28;20055;-29
2023/04/14 23:27:32;;;;;;;11.90;5.32;;;20.10;63.90;;;;;;10519764;28;20044;-32
2023/04/14 23:32:35;;;;;;;9.75;6.05;;;20.10;64.00;;;;;;10509110;28;20048;-33
2023/04/14 23:37:37;;;;;;;11.05;5.72;;;20.00;64.00;;;;;;10502890;28;20060;-30
2023/04/14 23:42:39;;;;;;;10.63;5.65;;;20.00;64.00;;;;;;10524192;28;20167;-33
2023/04/14 23:47:42;;;;;;;10.68;5.07;;;20.00;64.10;;;;;;10512068;28;20418;-28
2023/04/14 23:52:44;;;;;;;13.38;6.05;;;20.00;64.20;;;;;;10522997;28;20127;-28
2023/04/14 23:57:46;;;;;;;11.88;6.32;;;20.00;64.20;;;;;;10516929;28;20190;-30
